Time;durP1;ratioP1;P1;durP2;ratioP2;P2;SDS_P1;SDS_P2;PMS_P1;PMS_P2;Temp;Humidity;BMP_temperature;BMP_pressure;BME280_temperature;BME280_humidity;BME280_pressure;Samples;Min_cycle;Max_cycle;Signal;HPM_P1;HPM_P2
2021/09/10 00:02:10;;;;;;;23.60;12.70;;;;;;;19.05;92.23;101160.00;5040473;28;20048;-70
2021/09/10 00:04:38;;;;;;;19.52;12.80;;;;;;;19.06;92.01;101166.28;5039287;28;20559;-69
2021/09/10 00:07:06;;;;;;;21.02;12.30;;;;;;;19.09;91.93;101163.41;5041090;28;20088;-69
2021/09/10 00:09:35;;;;;;;24.17;13.20;;;;;;;19.07;92.07;101160.78;5037170;28;20308;-69
2021/09/10 00:12:03;;;;;;;21.95;13.18;;;;;;;19.08;92.41;101167.06;5038945;28;20605;-69
2021/09/10 00:14:31;;;;;;;22.77;14.13;;;;;;;19.10;92.95;101163.28;5037431;28;20052;-69
2021/09/10 00:16:59;;;;;;;25.10;15.63;;;;;;;19.12;92.97;101161.38;5038509;28;20402;-68
2021/09/10 00:19:27;;;;;;;25.88;15.45;;;;;;;19.14;93.73;101159.44;5039548;28;20045;-69
2021/09/10 00:21:55;;;;;;;25.48;15.13;;;;;;;19.13;93.99;101157.69;5040434;28;20087;-68
2021/09/10 00:24:22;;;;;;;25.85;12.82;;;;;;;19.17;93.80;101163.75;5036621;28;20718;-68
2021/09/10 00:26:52;;;;;;;24.90;15.68;;;;;;;19.16;94.09;101153.94;5037926;28;20052;-68
2021/09/10 00:29:19;;;;;;;22.38;13.73;;;;;;;19.14;94.03;101150.47;5035503;28;20560;-68
2021/09/10 00:31:47;;;;;;;26.10;16.27;;;;;;;19.12;95.19;101152.38;5036565;28;20676;-68
2021/09/10 00:34:15;;;;;;;25.00;15.10;;;;;;;19.10;95.65;101148.91;5038017;28;20437;-71
2021/09/10 00:36:46;;;;;;;26.27;16.05;;;;;;;19.09;95.67;101147.19;5037413;28;20045;-69
2021/09/10 00:39:14;;;;;;;27.48;16.35;;;;;;;19.08;95.71;101140.03;5036913;28;20052;-70
2021/09/10 00:41:42;;;;;;;28.83;16.75;;;;;;;19.04;96.16;101142.06;5038767;28;20080;-68
2021/09/10 00:44:11;;;;;;;25.75;15.25;;;;;;;19.02;96.14;101146.69;5037465;28;20049;-70
2021/09/10 00:46:39;;;;;;;26.08;15.85;;;;;;;19.02;96.64;101144.84;5040462;28;20081;-69
2021/09/10 00:49:07;;;;;;;28.38;16.77;;;;;;;19.02;97.23;101144.84;5035768;28;20376;-71
2021/09/10 00:51:36;;;;;;;30.83;17.73;;;;;;;19.00;97.09;101140.50;5037109;28;20653;-70
2021/09/10 00:54:04;;;;;;;28.75;16.00;;;;;;;19.05;96.94;101143.78;5038641;28;20079;-69
2021/09/10 00:56:32;;;;;;;29.00;17.23;;;;;;;19.00;97.50;101135.97;5037057;28;20095;-70
2021/09/10 00:59:03;;;;;;;26.08;14.65;;;;;;;19.03;97.50;101132.19;5041344;28;20048;-66
2021/09/10 01:01:34;;;;;;;28.73;17.35;;;;;;;19.03;98.37;101138.50;5039485;28;20049;-66
2021/09/10 01:04:03;;;;;;;28.77;18.05;;;;;;;19.00;98.56;101130.56;5037989;28;20056;-70
2021/09/10 01:06:31;;;;;;;31.30;16.92;;;;;;;19.00;98.42;101133.28;5035414;28;20144;-69
2021/09/10 01:09:00;;;;;;;27.35;16.92;;;;;;;19.02;99.15;101136.75;5039293;28;20510;-69
2021/09/10 01:11:30;;;;;;;26.15;16.42;;;;;;;19.03;98.92;101132.19;5038813;28;20110;-70
2021/09/10 01:13:58;;;;;;;27.52;17.23;;;;;;;19.07;99.04;101127.44;5037885;28;20183;-69
2021/09/10 01:16:26;;;;;;;29.02;16.13;;;;;;;19.09;99.13;101133.66;5034091;28;20652;-70
2021/09/10 01:18:56;;;;;;;28.70;17.25;;;;;;;19.12;98.84;101131.63;5036642;28;20040;-69
2021/09/10 01:21:24;;;;;;;30.83;16.75;;;;;;;19.12;98.93;101131.63;5039303;28;20107;-69
2021/09/10 01:23:52;;;;;;;29.63;16.23;;;;;;;19.23;99.59;101126.38;5037551;28;20053;-69
2021/09/10 01:26:21;;;;;;;31.75;17.80;;;;;;;19.26;99.17;101137.97;5036520;28;20648;-69
2021/09/10 01:28:50;;;;;;;26.83;15.23;;;;;;;19.24;99.22;101132.69;5038047;28;20057;-69
2021/09/10 01:31:18;;;;;;;32.75;17.45;;;;;;;19.32;99.73;101133.03;5032440;28;20591;-69
2021/09/10 01:33:46;;;;;;;29.67;16.13;;;;;;;19.31;99.14;101136.72;5039078;28;20049;-69
2021/09/10 01:36:14;;;;;;;30.55;17.55;;;;;;;19.34;99.43;101127.53;5035360;28;20132;-70
2021/09/10 01:38:42;;;;;;;28.67;15.57;;;;;;;19.38;99.35;101129.09;5037803;28;20052;-69
2021/09/10 01:41:11;;;;;;;31.58;17.58;;;;;;;19.40;99.46;101124.44;5040033;28;20076;-69
2021/09/10 01:43:40;;;;;;;26.35;15.27;;;;;;;19.42;99.01;101128.75;5037937;28;20087;-69
2021/09/10 01:46:08;;;;;;;29.25;16.33;;;;;;;19.41;99.64;101131.59;5038144;28;20064;-69
2021/09/10 01:48:36;;;;;;;29.63;17.10;;;;;;;19.41;99.23;101131.59;5035490;28;20049;-69
2021/09/10 01:51:04;;;;;;;28.83;16.10;;;;;;;19.42;99.58;101127.91;5038757;28;20359;-70
2021/09/10 01:53:32;;;;;;;28.35;16.33;;;;;;;19.41;99.80;101129.75;5035814;28;20080;-69
2021/09/10 01:56:01;;;;;;;31.90;17.73;;;;;;;19.45;99.50;101127.72;5038706;28;20565;-70
2021/09/10 01:58:29;;;;;;;26.45;15.93;;;;;;;19.45;99.65;101126.84;5038054;28;20056;-69
2021/09/10 02:00:59;;;;;;;31.52;15.88;;;;;;;19.44;99.17;101131.38;5039031;28;20062;-69
2021/09/10 02:03:28;;;;;;;27.15;16.60;;;;;;;19.45;99.61;101125.00;5037185;28;20163;-70
2021/09/10 02:05:57;;;;;;;27.65;16.58;;;;;;;19.46;99.71;101123.16;5038365;28;20060;-65
2021/09/10 02:08:25;;;;;;;29.35;15.88;;;;;;;19.44;99.86;101123.25;5036487;28;20076;-65
2021/09/10 02:10:53;;;;;;;27.58;14.75;;;;;;;19.44;99.78;101127.81;5039365;28;20053;-65
2021/09/10 02:13:20;;;;;;;26.80;15.63;;;;;;;19.42;99.85;101126.06;5031204;28;20049;-66
2021/09/10 02:15:48;;;;;;;30.48;17.33;;;;;;;19.42;99.66;101127.91;5038565;28;20818;-65
2021/09/10 02:18:18;;;;;;;28.20;15.65;;;;;;;19.46;99.82;101125.88;5033631;28;20869;-66
2021/09/10 02:20:45;;;;;;;27.98;15.60;;;;;;;19.47;99.63;101130.31;5036502;28;20098;-66
2021/09/10 02:23:13;;;;;;;29.15;15.40;;;;;;;19.44;99.92;101135.94;5037517;28;20547;-66
2021/09/10 02:25:41;;;;;;;31.48;18.10;;;;;;;19.41;99.98;101135.16;5033255;28;20056;-68
2021/09/10 02:28:09;;;;;;;31.17;16.38;;;;;;;19.41;100.00;101131.59;5037493;28;20064;-67
2021/09/10 02:30:37;;;;;;;26.38;15.77;;;;;;;19.37;100.00;101144.44;5036411;28;20565;-67
2021/09/10 02:33:05;;;;;;;29.60;15.88;;;;;;;19.35;100.00;101131.97;5037583;28;20355;-66
2021/09/10 02:35:34;;;;;;;27.38;15.50;;;;;;;19.33;100.00;101140.19;5037464;28;20048;-66
2021/09/10 02:38:02;;;;;;;31.50;16.40;;;;;;;19.31;100.00;101136.72;5037706;28;20118;-66
2021/09/10 02:40:29;;;;;;;26.77;15.13;;;;;;;19.33;100.00;101139.34;5036236;28;20045;-66
2021/09/10 02:42:57;;;;;;;29.75;16.25;;;;;;;19.29;99.65;101138.66;5033779;28;20098;-66
2021/09/10 02:45:25;;;;;;;27.80;15.35;;;;;;;19.29;100.00;101138.66;5037558;28;20094;-66
2021/09/10 02:47:53;;;;;;;29.67;16.45;;;;;;;19.26;100.00;101135.25;5035855;28;20354;-66
2021/09/10 02:50:21;;;;;;;27.85;16.10;;;;;;;19.22;100.00;101142.72;5036680;28;20117;-66
2021/09/10 02:53:02;;;;;;;30.20;17.00;;;;;;;19.19;100.00;101135.69;5035730;28;20133;-66
2021/09/10 02:55:33;;;;;;;31.13;16.98;;;;;;;19.19;100.00;101132.09;5036437;28;20130;-67
2021/09/10 02:58:01;;;;;;;31.05;17.48;;;;;;;19.16;100.00;101140.41;5036282;28;20545;-67
2021/09/10 03:00:29;;;;;;;35.40;17.73;;;;;;;19.13;100.00;101127.94;5033220;28;20233;-66
2021/09/10 03:02:57;;;;;;;27.42;15.80;;;;;;;19.12;100.00;101134.34;5036277;28;20065;-66
2021/09/10 03:05:25;;;;;;;29.65;16.30;;;;;;;19.11;100.00;101140.69;5038276;28;20053;-66
2021/09/10 03:07:54;;;;;;;29.63;16.65;;;;;;;19.09;100.00;101130.97;5032746;28;20185;-66
2021/09/10 03:10:22;;;;;;;28.10;16.90;;;;;;;19.08;100.00;101134.63;5035029;28;20473;-69
2021/09/10 03:12:50;;;;;;;28.50;16.60;;;;;;;19.10;100.00;101138.94;5033549;28;20068;-70
2021/09/10 03:15:18;;;;;;;30.63;17.00;;;;;;;19.10;100.00;101140.78;5035922;28;20121;-70
2021/09/10 03:17:45;;;;;;;30.92;17.13;;;;;;;19.08;100.00;101137.31;5033594;28;20052;-70
2021/09/10 03:20:14;;;;;;;29.45;17.17;;;;;;;19.06;100.00;101133.84;5034048;28;20057;-70
2021/09/10 03:22:42;;;;;;;33.20;18.30;;;;;;;19.04;100.00;101144.75;5034195;28;20056;-70
2021/09/10 03:25:12;;;;;;;28.52;17.45;;;;;;;19.04;100.00;101142.91;5033492;28;20122;-70
2021/09/10 03:27:44;;;;;;;32.47;17.30;;;;;;;19.03;100.00;101143.00;5035760;28;20053;-70
2021/09/10 03:30:12;;;;;;;31.90;17.23;;;;;;;19.04;100.00;101142.06;5033291;28;20381;-71
2021/09/10 03:32:41;;;;;;;29.80;17.52;;;;;;;19.04;100.00;101139.34;5037444;28;20053;-70
2021/09/10 03:35:10;;;;;;;32.80;17.55;;;;;;;19.00;100.00;101145.91;5037323;28;20076;-70
2021/09/10 03:37:38;;;;;;;30.25;16.75;;;;;;;18.99;100.00;101142.34;5034476;28;20119;-70
2021/09/10 03:40:08;;;;;;;32.17;16.70;;;;;;;19.00;100.00;101146.78;5037267;28;20045;-69
2021/09/10 03:42:37;;;;;;;28.63;16.17;;;;;;;18.96;100.00;101137.09;5033857;28;20044;-69
2021/09/10 03:45:07;;;;;;;31.88;18.63;;;;;;;18.96;100.00;101138.97;5035860;28;20045;-70
2021/09/10 03:47:35;;;;;;;28.98;17.48;;;;;;;18.95;100.00;101129.97;5032289;28;20049;-70
2021/09/10 03:50:03;;;;;;;29.88;16.52;;;;;;;18.92;100.00;101138.28;5035931;28;20049;-66
2021/09/10 03:52:31;;;;;;;32.17;17.08;;;;;;;18.91;100.00;101135.66;5035126;28;20057;-65
2021/09/10 03:54:59;;;;;;;28.15;16.42;;;;;;;18.90;100.00;101131.22;5035584;28;20045;-65
2021/09/10 03:57:27;;;;;;;30.88;17.00;;;;;;;18.87;100.00;101129.59;5033559;28;20049;-70
2021/09/10 03:59:56;;;;;;;31.38;17.42;;;;;;;18.84;100.00;101138.75;5034024;28;20368;-70
2021/09/10 04:02:24;;;;;;;31.52;17.50;;;;;;;18.83;100.00;101139.72;5035238;28;20053;-70
2021/09/10 04:04:52;;;;;;;28.23;15.63;;;;;;;18.81;100.00;101138.94;5036703;28;20045;-70
2021/09/10 04:07:20;;;;;;;28.83;17.75;;;;;;;18.77;100.00;101153.56;5034944;28;20053;-70
2021/09/10 04:09:48;;;;;;;28.70;17.13;;;;;;;18.78;100.00;101151.72;5033368;28;20045;-70
2021/09/10 04:12:15;;;;;;;30.92;15.90;;;;;;;18.78;100.00;101146.31;5033566;28;20225;-69
2021/09/10 04:14:43;;;;;;;30.23;17.70;;;;;;;18.76;100.00;101145.56;5039010;28;20187;-69
2021/09/10 04:17:12;;;;;;;33.10;17.35;;;;;;;18.74;100.00;101147.50;5033298;28;20055;-65
2021/09/10 04:19:40;;;;;;;31.33;17.65;;;;;;;18.73;100.00;101145.75;5036150;28;20136;-65
2021/09/10 04:22:08;;;;;;;28.77;18.02;;;;;;;18.69;100.00;101139.66;5035973;28;20124;-65
2021/09/10 04:24:36;;;;;;;29.25;17.50;;;;;;;18.68;100.00;101137.94;5039746;28;20053;-65
2021/09/10 04:27:04;;;;;;;42.13;21.58;;;;;;;18.64;100.00;101141.78;5037207;28;20524;-66
2021/09/10 04:29:32;;;;;;;30.67;18.05;;;;;;;18.61;100.00;101136.56;5040197;28;20449;-67
2021/09/10 04:32:02;;;;;;;28.15;17.15;;;;;;;18.60;100.00;101138.41;5039437;28;20057;-65
2021/09/10 04:34:31;;;;;;;29.75;16.98;;;;;;;18.60;100.00;101135.69;5036966;28;20082;-65
2021/09/10 04:37:00;;;;;;;32.58;17.38;;;;;;;18.57;100.00;101145.81;5038686;28;20491;-65
2021/09/10 04:39:28;;;;;;;30.58;17.23;;;;;;;18.56;100.00;101131.44;5034929;28;20053;-65
2021/09/10 04:41:57;;;;;;;29.25;16.35;;;;;;;18.58;100.00;101139.47;5041274;28;20144;-65
2021/09/10 04:44:24;;;;;;;30.05;17.83;;;;;;;18.52;100.00;101129.03;5038497;28;20075;-64
2021/09/10 04:46:55;;;;;;;28.52;17.92;;;;;;;18.48;100.00;101125.63;5037543;28;20053;-65
2021/09/10 04:49:23;;;;;;;28.60;17.77;;;;;;;18.45;100.00;101131.22;5038063;28;20120;-65
2021/09/10 04:51:52;;;;;;;30.10;17.77;;;;;;;18.44;100.00;101124.97;5035515;28;20057;-65
2021/09/10 04:54:19;;;;;;;35.00;18.05;;;;;;;18.44;100.00;101129.50;5037153;28;20068;-65
2021/09/10 04:56:47;;;;;;;29.75;17.83;;;;;;;18.41;100.00;101127.84;5037928;28;20045;-65
2021/09/10 04:59:15;;;;;;;34.10;18.83;;;;;;;18.43;100.00;101133.16;5040677;28;20087;-65
2021/09/10 05:01:43;;;;;;;31.15;16.73;;;;;;;18.40;100.00;101125.22;5037786;28;20075;-66
2021/09/10 05:04:12;;;;;;;28.35;16.83;;;;;;;18.38;100.00;101136.13;5038277;28;20053;-66
2021/09/10 05:06:40;;;;;;;28.13;17.80;;;;;;;18.35;100.00;101128.19;5037769;28;20099;-70
2021/09/10 05:09:09;;;;;;;34.30;19.08;;;;;;;18.36;100.00;101138.06;5038503;28;20053;-66
2021/09/10 05:11:37;;;;;;;32.97;17.90;;;;;;;18.33;100.00;101124.72;5035270;28;20053;-66
2021/09/10 05:14:04;;;;;;;32.42;17.88;;;;;;;18.32;100.00;101122.13;5034984;28;20079;-70
2021/09/10 05:16:32;;;;;;;36.78;17.70;;;;;;;18.27;100.00;101130.53;5039385;28;20064;-70
2021/09/10 05:19:00;;;;;;;32.97;17.88;;;;;;;18.27;100.00;101130.53;5038646;28;20053;-70
2021/09/10 05:21:28;;;;;;;36.28;18.90;;;;;;;18.24;100.00;101145.06;5036065;28;20049;-70
2021/09/10 05:23:56;;;;;;;36.65;19.33;;;;;;;18.22;100.00;101152.38;5038010;28;20110;-70
2021/09/10 05:26:26;;;;;;;31.10;17.75;;;;;;;18.21;100.00;101147.94;5035582;28;20049;-70
2021/09/10 05:28:54;;;;;;;29.17;16.13;;;;;;;18.20;100.00;101158.81;5034747;28;20511;-70
2021/09/10 05:31:22;;;;;;;33.85;17.60;;;;;;;18.19;100.00;101154.41;5035636;28;20059;-70
2021/09/10 05:33:50;;;;;;;32.60;17.90;;;;;;;18.18;100.00;101161.63;5034059;28;20068;-70
2021/09/10 05:36:18;;;;;;;33.15;17.23;;;;;;;18.18;100.00;101163.44;5036611;28;20095;-70
2021/09/10 05:38:45;;;;;;;34.65;19.25;;;;;;;18.17;100.00;101170.69;5038532;28;20063;-70
2021/09/10 05:41:13;;;;;;;33.88;20.05;;;;;;;18.20;100.00;101180.44;5037312;28;20345;-69
2021/09/10 05:43:43;;;;;;;35.33;19.77;;;;;;;18.19;100.00;101179.56;5037777;28;20057;-69
2021/09/10 05:46:11;;;;;;;33.83;18.80;;;;;;;18.22;100.00;101176.69;5036534;28;20056;-70
2021/09/10 05:48:39;;;;;;;31.33;18.58;;;;;;;18.21;100.00;101177.66;5038236;28;20045;-70
2021/09/10 05:51:08;;;;;;;36.35;19.58;;;;;;;18.23;100.00;101175.72;5033808;28;20054;-70
2021/09/10 05:53:36;;;;;;;34.83;18.75;;;;;;;18.26;100.00;101180.94;5037543;28;20107;-70
2021/09/10 05:56:04;;;;;;;33.30;19.13;;;;;;;18.26;100.00;101183.63;5038423;28;20052;-71
2021/09/10 05:58:31;;;;;;;32.88;17.65;;;;;;;18.32;100.00;101179.72;5037263;28;20052;-70
2021/09/10 06:01:00;;;;;;;32.28;18.27;;;;;;;18.35;100.00;101182.22;5032365;28;21122;-69
2021/09/10 06:03:28;;;;;;;32.22;18.95;;;;;;;18.40;100.00;101187.38;5035562;28;20158;-70
2021/09/10 06:05:58;;;;;;;34.53;18.10;;;;;;;18.48;100.00;101179.69;5035514;28;20053;-70
2021/09/10 06:08:25;;;;;;;35.25;18.55;;;;;;;18.56;100.00;101182.78;5032564;28;20138;-70
2021/09/10 06:10:53;;;;;;;36.38;18.27;;;;;;;18.62;100.00;101187.81;5037368;28;20142;-70
2021/09/10 06:13:21;;;;;;;32.22;18.38;;;;;;;18.72;100.00;101190.81;5033336;28;20692;-69
2021/09/10 06:15:49;;;;;;;28.88;16.80;;;;;;;18.80;100.00;101191.25;5038153;28;20414;-70
2021/09/10 06:18:18;;;;;;;30.45;18.90;;;;;;;18.87;100.00;101193.63;5035579;28;20122;-70
2021/09/10 06:20:46;;;;;;;28.77;17.05;;;;;;;18.95;100.00;101199.41;5036142;28;20053;-70
2021/09/10 06:23:14;;;;;;;33.08;18.10;;;;;;;19.03;100.00;101202.50;5036107;28;20045;-71
2021/09/10 06:25:42;;;;;;;33.88;18.42;;;;;;;19.11;100.00;101200.19;5037055;28;20475;-71
2021/09/10 06:28:11;;;;;;;34.25;19.17;;;;;;;19.14;100.00;101204.56;5036167;28;20049;-70
2021/09/10 06:30:39;;;;;;;29.27;16.58;;;;;;;19.30;100.00;101205.31;5035577;28;20087;-71
2021/09/10 06:33:07;;;;;;;31.63;17.30;;;;;;;19.32;100.00;101210.63;5034272;28;20095;-70
2021/09/10 06:35:36;;;;;;;27.35;15.15;;;;;;;19.34;100.00;101208.69;5035572;28;20076;-70
2021/09/10 06:38:04;;;;;;;28.83;16.05;;;;;;;19.37;100.00;101216.63;5034812;28;20049;-70
2021/09/10 06:40:32;;;;;;;30.15;15.77;;;;;;;19.33;100.00;101209.69;5037894;28;20057;-70
2021/09/10 06:43:00;;;;;;;27.23;16.02;;;;;;;19.28;100.00;101220.78;5029878;28;20540;-65
2021/09/10 06:45:28;;;;;;;27.52;14.30;;;;;;;19.39;100.00;101215.56;5035927;28;20045;-65
2021/09/10 06:47:56;;;;;;;29.40;14.98;;;;;;;19.40;100.00;101221.84;5032604;28;20270;-65
2021/09/10 06:50:24;;;;;;;26.90;14.77;;;;;;;19.32;100.00;101226.88;5032712;28;20839;-65
2021/09/10 06:52:54;;;;;;;31.08;14.65;;;;;;;19.39;100.00;101223.69;5038758;28;20087;-69
2021/09/10 06:55:21;;;;;;;26.65;14.30;;;;;;;19.37;99.92;101220.19;5033034;28;20328;-69
2021/09/10 06:57:49;;;;;;;25.83;15.60;;;;;;;19.42;99.82;101228.88;5037365;28;20049;-69
2021/09/10 07:00:17;;;;;;;25.55;14.88;;;;;;;19.41;99.61;101227.16;5032613;28;20134;-69
2021/09/10 07:02:45;;;;;;;21.58;13.45;;;;;;;19.39;99.10;101226.41;5034882;28;20587;-69
2021/09/10 07:05:15;;;;;;;27.10;14.10;;;;;;;19.49;99.11;101231.22;5035008;28;20123;-69
2021/09/10 07:07:43;;;;;;;23.23;13.27;;;;;;;19.55;98.80;101234.41;5035076;28;20471;-69
2021/09/10 07:10:12;;;;;;;24.15;13.98;;;;;;;19.55;98.60;101236.25;5033677;28;20673;-69
2021/09/10 07:12:40;;;;;;;23.80;13.07;;;;;;;19.56;98.13;101237.97;5033375;28;20088;-69
2021/09/10 07:15:09;;;;;;;25.33;13.90;;;;;;;19.67;97.77;101232.75;5037425;28;20053;-69
2021/09/10 07:17:37;;;;;;;22.42;12.68;;;;;;;19.75;97.28;101237.69;5037992;28;20045;-69
2021/09/10 07:20:06;;;;;;;22.98;13.05;;;;;;;19.78;96.68;101235.69;5033603;28;20053;-65
2021/09/10 07:22:34;;;;;;;21.83;12.82;;;;;;;19.81;96.65;101236.44;5035805;28;20524;-65
2021/09/10 07:25:02;;;;;;;22.45;12.27;;;;;;;19.87;96.18;101247.75;5034960;28;20045;-65
2021/09/10 07:27:31;;;;;;;21.88;11.48;;;;;;;19.92;95.46;101252.84;5036441;28;20064;-65
2021/09/10 07:29:59;;;;;;;27.63;12.40;;;;;;;19.87;95.08;101252.28;5033130;28;20085;-65
2021/09/10 07:32:27;;;;;;;20.35;12.68;;;;;;;19.92;94.92;101255.56;5033094;28;20500;-65
2021/09/10 07:34:55;;;;;;;19.40;11.18;;;;;;;20.04;94.51;101260.19;5035598;28;20052;-65
2021/09/10 07:37:27;;;;;;;21.60;11.98;;;;;;;20.17;93.95;101262.94;5034287;28;20053;-65
2021/09/10 07:39:55;;;;;;;19.45;10.95;;;;;;;20.42;93.21;101266.75;5035749;28;20058;-65
2021/09/10 07:42:23;;;;;;;20.17;11.13;;;;;;;20.64;91.55;101268.94;5034003;28;20640;-65
2021/09/10 07:44:54;;;;;;;20.15;11.75;;;;;;;20.85;90.56;101262.03;5035882;28;20053;-65
2021/09/10 07:47:22;;;;;;;18.75;10.95;;;;;;;20.98;89.72;101253.06;5037191;28;20065;-66
2021/09/10 07:49:50;;;;;;;20.52;11.43;;;;;;;20.89;89.14;101255.44;5032981;28;20056;-66
2021/09/10 07:52:17;;;;;;;20.92;11.90;;;;;;;20.75;89.66;101260.91;5037254;28;20090;-65
2021/09/10 07:54:45;;;;;;;22.40;12.77;;;;;;;20.82;89.63;101269.50;5032885;28;20060;-65
2021/09/10 07:57:23;;;;;;;20.92;12.73;;;;;;;21.05;88.87;101259.78;5037535;28;20080;-65
2021/09/10 07:59:56;;;;;;;22.02;14.55;;;;;;;21.30;87.26;101272.50;5038855;28;20051;-69
2021/09/10 08:02:25;;;;;;;23.05;14.23;;;;;;;21.86;84.35;101268.56;5039624;28;20390;-70
2021/09/10 08:04:54;;;;;;;22.60;15.02;;;;;;;22.06;83.18;101261.66;5041485;28;20053;-69
2021/09/10 08:07:23;;;;;;;23.00;13.85;;;;;;;22.70;81.40;101267.72;5037503;28;20118;-70
2021/09/10 08:09:59;;;;;;;21.10;13.38;;;;;;;22.74;80.24;101271.94;5038494;28;20059;-69
2021/09/10 08:12:26;;;;;;;19.73;11.93;;;;;;;23.15;78.16;101277.06;5038590;28;20144;-69
2021/09/10 08:14:56;;;;;;;16.92;10.55;;;;;;;23.28;79.33;101273.25;5039068;28;20652;-69
2021/09/10 08:17:24;;;;;;;21.38;12.88;;;;;;;23.19;78.41;101275.81;5038340;28;20049;-69
2021/09/10 08:19:52;;;;;;;21.27;11.05;;;;;;;23.28;77.35;101270.50;5036367;28;20049;-65
2021/09/10 08:22:19;;;;;;;19.35;11.60;;;;;;;22.92;77.76;101272.38;5041305;28;20052;-65
2021/09/10 08:24:57;;;;;;;17.05;10.55;;;;;;;22.85;78.39;101272.97;5038794;28;20057;-65
2021/09/10 08:27:25;;;;;;;19.95;10.05;;;;;;;22.78;78.96;101277.16;5039372;28;20045;-65
2021/09/10 08:29:53;;;;;;;19.70;10.38;;;;;;;22.53;79.10;101279.88;5036985;28;20508;-65
2021/09/10 08:32:23;;;;;;;17.60;10.90;;;;;;;22.43;79.96;101283.44;5039477;28;20103;-66
2021/09/10 08:34:51;;;;;;;21.10;10.05;;;;;;;22.45;79.55;101284.19;5039449;28;20793;-65
2021/09/10 08:37:20;;;;;;;16.45;9.90;;;;;;;22.05;80.98;101290.69;5036900;28;20049;-69
2021/09/10 08:39:52;;;;;;;;;;;;;;;22.06;80.57;101289.69;5039756;28;20136;-68
2021/09/10 08:42:20;;;;;;;16.20;9.88;;;;;;;22.22;80.32;101286.75;5037990;28;19925;-69
2021/09/10 08:44:48;;;;;;;17.48;9.90;;;;;;;22.26;81.20;101288.22;5042594;28;20072;-69
2021/09/10 08:47:16;;;;;;;18.88;10.77;;;;;;;22.15;80.57;101286.31;5038640;28;20061;-69
2021/09/10 08:49:46;;;;;;;20.02;9.90;;;;;;;22.07;80.91;101304.19;5035905;28;20057;-68
2021/09/10 08:52:15;;;;;;;18.13;10.55;;;;;;;21.92;81.52;101298.00;5038915;28;20805;-69
2021/09/10 08:54:43;;;;;;;19.20;10.43;;;;;;;22.07;81.33;101304.19;5036476;28;20057;-65
2021/09/10 08:57:10;;;;;;;15.52;9.60;;;;;;;22.24;80.62;101302.94;5039050;28;20470;-65
2021/09/10 08:59:38;;;;;;;19.45;10.63;;;;;;;22.01;80.86;101303.66;5037148;28;20056;-68
2021/09/10 09:02:07;;;;;;;18.63;11.10;;;;;;;21.88;81.34;101308.22;5038630;28;20171;-68
2021/09/10 09:04:39;;;;;;;20.48;12.45;;;;;;;21.93;81.64;101310.59;5038812;28;20041;-65
2021/09/10 09:07:10;;;;;;;18.33;12.07;;;;;;;22.05;81.34;101315.16;5038749;28;20057;-68
2021/09/10 09:09:40;;;;;;;17.60;11.52;;;;;;;21.98;80.76;101312.00;5039807;28;20107;-68
2021/09/10 09:12:13;;;;;;;19.35;13.25;;;;;;;21.97;81.23;101312.13;5034510;28;20067;-69
2021/09/10 09:14:46;;;;;;;23.35;15.05;;;;;;;21.77;81.47;101316.28;5036161;28;20099;-70
2021/09/10 09:17:19;;;;;;;27.00;16.48;;;;;;;21.70;81.48;101320.41;5034840;28;20064;-65
2021/09/10 09:19:47;;;;;;;24.23;16.92;;;;;;;21.82;81.37;101319.53;5040341;28;20131;-64
2021/09/10 09:22:17;;;;;;;31.83;20.20;;;;;;;21.42;82.32;101323.19;5039671;28;20111;-65
2021/09/10 09:24:45;;;;;;;32.03;20.45;;;;;;;21.59;82.38;101321.16;5035335;28;20602;-65
2021/09/10 09:27:12;;;;;;;35.90;21.65;;;;;;;21.51;82.63;101321.72;5038967;28;20728;-65
2021/09/10 09:29:51;;;;;;;36.10;22.75;;;;;;;21.73;82.42;101331.91;5034835;28;20144;-65
2021/09/10 09:32:19;;;;;;;33.60;23.23;;;;;;;21.72;81.59;101332.03;5037197;28;20512;-66
2021/09/10 09:34:49;;;;;;;35.85;22.80;;;;;;;21.56;81.89;101330.41;5039361;28;20085;-66
2021/09/10 09:37:20;;;;;;;40.40;25.00;;;;;;;21.44;82.29;101323.97;5036183;28;20080;-64
2021/09/10 09:39:53;;;;;;;42.30;26.42;;;;;;;21.40;82.59;101326.97;5037837;28;20528;-64
2021/09/10 09:42:27;;;;;;;37.13;24.08;;;;;;;21.55;82.32;101331.38;5033762;28;20059;-64
2021/09/10 09:45:12;;;;;;;33.95;21.83;;;;;;;21.67;82.28;101339.63;5036985;28;20049;-64
2021/09/10 09:47:41;;;;;;;39.58;24.42;;;;;;;21.60;82.08;101339.19;5035223;28;20095;-64
2021/09/10 09:50:12;;;;;;;42.20;25.85;;;;;;;21.71;81.79;101331.16;5036845;28;20052;-64
2021/09/10 09:52:41;;;;;;;43.00;25.48;;;;;;;21.72;81.25;101337.47;5036769;28;20048;-66
2021/09/10 09:55:12;;;;;;;39.95;26.00;;;;;;;21.90;80.85;101341.56;5037638;28;20477;-64
2021/09/10 09:57:41;;;;;;;43.53;27.00;;;;;;;22.00;80.69;101339.94;5037262;28;20136;-64
2021/09/10 10:00:10;;;;;;;41.67;28.08;;;;;;;22.08;80.17;101338.50;5034593;28;20088;-66
2021/09/10 10:02:38;;;;;;;43.85;28.27;;;;;;;22.20;79.86;101340.31;5039643;28;20151;-65
2021/09/10 10:05:09;;;;;;;47.60;30.15;;;;;;;22.18;80.44;101331.41;5036919;28;20095;-67
2021/09/10 10:07:43;;;;;;;48.53;29.70;;;;;;;22.13;80.16;101339.03;5035498;28;20060;-65
2021/09/10 10:10:17;;;;;;;46.55;29.15;;;;;;;22.41;79.25;101331.59;5036790;28;20049;-65
2021/09/10 10:12:46;;;;;;;;;;;;;;;22.29;79.79;101336.09;5035794;28;20186;-65
2021/09/10 10:15:22;;;;;;;46.80;29.35;;;;;;;22.60;79.15;101340.13;5038197;28;20636;-65
2021/09/10 10:17:51;;;;;;;45.05;28.23;;;;;;;22.63;78.10;101347.16;5036657;28;20083;-65
2021/09/10 10:20:51;;;;;;;41.10;28.38;;;;;;;22.59;79.75;101346.53;5037393;28;20076;-65
2021/09/10 10:23:58;;;;;;;43.42;29.42;;;;;;;22.69;78.87;101349.44;5041093;28;20508;-65
2021/09/10 10:26:35;;;;;;;47.00;30.55;;;;;;;22.82;77.04;101349.38;5035480;28;20049;-65
2021/09/10 10:29:06;;;;;;;49.08;30.75;;;;;;;22.88;77.17;101341.63;5036937;28;20053;-65
2021/09/10 10:32:03;;;;;;;49.83;29.73;;;;;;;22.96;76.77;101346.47;5035176;28;20432;-65
2021/09/10 10:34:33;;;;;;;46.03;29.38;;;;;;;22.88;76.58;101344.34;5036241;28;20087;-65
2021/09/10 10:37:01;;;;;;;45.55;27.45;;;;;;;22.87;76.32;101348.03;5035130;28;20044;-65
2021/09/10 10:39:30;;;;;;;40.42;24.25;;;;;;;23.34;75.86;101353.53;5034043;28;20052;-65
2021/09/10 10:42:02;;;;;;;35.13;23.17;;;;;;;23.56;74.59;101344.56;5036125;28;20052;-65
2021/09/10 10:44:49;;;;;;;37.25;24.10;;;;;;;23.71;74.84;101347.06;5033469;28;20045;-65
2021/09/10 10:47:19;;;;;;;35.33;23.50;;;;;;;23.73;73.09;101345.94;5035800;28;20100;-65
2021/09/10 10:49:49;;;;;;;39.47;24.45;;;;;;;23.51;73.81;101346.78;5036224;28;20061;-65
2021/09/10 10:52:34;;;;;;;37.35;23.58;;;;;;;23.27;74.19;101347.72;5032685;28;20049;-65
2021/09/10 10:55:18;;;;;;;30.23;22.00;;;;;;;23.21;74.15;101348.22;5037437;28;20616;-65
2021/09/10 10:57:46;;;;;;;30.60;20.17;;;;;;;23.01;74.60;101349.69;5032892;28;20067;-65
2021/09/10 11:00:48;;;;;;;31.52;21.30;;;;;;;22.90;75.03;101345.09;5040345;28;20681;-65
2021/09/10 11:03:31;;;;;;;31.65;20.02;;;;;;;23.02;74.91;101340.56;5032832;28;20410;-69
2021/09/10 11:06:19;;;;;;;;;;;;;;;23.06;74.92;101352.13;5039311;28;20067;-69
2021/09/10 11:08:48;;;;;;;29.55;17.88;;;;;;;22.94;74.85;101352.03;5033314;28;20027;-69
2021/09/10 11:11:18;;;;;;;29.63;20.83;;;;;;;22.99;74.62;101351.69;5036597;28;20056;-69
2021/09/10 11:13:46;;;;;;;27.20;18.88;;;;;;;23.02;74.33;101346.00;5035866;28;20049;-69
2021/09/10 11:16:27;;;;;;;26.48;17.85;;;;;;;22.90;74.54;101336.03;5036236;28;20423;-69
2021/09/10 11:18:55;;;;;;;24.30;17.83;;;;;;;23.03;74.96;101328.69;5035034;28;20103;-69